EAI48D EIDW-EIDL
Flight info
| Callsign | EAI48D |
|---|---|
| Flight time | 0h 30m |
| Altitude | 20000 |
| Route | SUROX8E SUROX DCT NIPIT DCT DL102 |
| Aircraft | A319/M-SDE3FGHIRWY/LB1 |
Departure
| Time | 2026-04-20 18:53 |
|---|---|
| Airport | Dublin Airport (EIDW) |
Arrival
| Time | 2026-04-20 19:23 |
|---|---|
| Airport | Donegal Airport (EIDL) |
| Time | Latitude | Longitude | Altitude | Speed | Heading |
|---|---|---|---|---|---|
| 2026-04-20 18:28 | 53.42250 | -6.23838 | 213 ft | 0 kts | 27° |
| 2026-04-20 18:41 | 53.42248 | -6.23840 | 216 ft | 2 kts | 27° |
| 2026-04-20 18:42 | 53.42231 | -6.23855 | 213 ft | 3 kts | 10° |
| 2026-04-20 18:42 | 53.42214 | -6.23852 | 211 ft | 3 kts | 343° |
| 2026-04-20 18:42 | 53.42209 | -6.23849 | 211 ft | 0 kts | 343° |
| 2026-04-20 18:44 | 53.42209 | -6.23850 | 211 ft | 0 kts | 335° |
| 2026-04-20 18:44 | 53.42211 | -6.23868 | 217 ft | 0 kts | 294° |
| 2026-04-20 18:45 | 53.42211 | -6.23869 | 216 ft | 1 kts | 294° |
| 2026-04-20 18:45 | 53.42221 | -6.23904 | 217 ft | 5 kts | 295° |
| 2026-04-20 18:46 | 53.42237 | -6.23960 | 218 ft | 6 kts | 295° |
| 2026-04-20 18:46 | 53.42255 | -6.24024 | 215 ft | 6 kts | 295° |
| 2026-04-20 18:46 | 53.42255 | -6.24104 | 211 ft | 9 kts | 246° |
| 2026-04-20 18:46 | 53.42198 | -6.24194 | 211 ft | 13 kts | 219° |
| 2026-04-20 18:47 | 53.42157 | -6.24317 | 211 ft | 13 kts | 274° |
| 2026-04-20 18:47 | 53.42166 | -6.24474 | 213 ft | 14 kts | 275° |
| 2026-04-20 18:47 | 53.42176 | -6.24643 | 216 ft | 15 kts | 275° |
| 2026-04-20 18:47 | 53.42185 | -6.24825 | 211 ft | 16 kts | 275° |
| 2026-04-20 18:48 | 53.42194 | -6.25011 | 214 ft | 16 kts | 275° |
| 2026-04-20 18:48 | 53.42205 | -6.25209 | 211 ft | 18 kts | 276° |
| 2026-04-20 18:48 | 53.42216 | -6.25417 | 211 ft | 18 kts | 275° |
| 2026-04-20 18:48 | 53.42229 | -6.25633 | 211 ft | 19 kts | 275° |
| 2026-04-20 18:49 | 53.42242 | -6.25855 | 213 ft | 20 kts | 275° |
| 2026-04-20 18:49 | 53.42255 | -6.26087 | 211 ft | 20 kts | 275° |
| 2026-04-20 18:49 | 53.42267 | -6.26327 | 211 ft | 21 kts | 274° |
| 2026-04-20 18:49 | 53.42278 | -6.26568 | 211 ft | 21 kts | 275° |
| 2026-04-20 18:50 | 53.42293 | -6.26819 | 216 ft | 22 kts | 276° |
| 2026-04-20 18:50 | 53.42309 | -6.27079 | 220 ft | 23 kts | 275° |
| 2026-04-20 18:50 | 53.42324 | -6.27343 | 213 ft | 23 kts | 275° |
| 2026-04-20 18:50 | 53.42338 | -6.27615 | 217 ft | 24 kts | 275° |
| 2026-04-20 18:51 | 53.42353 | -6.27895 | 214 ft | 25 kts | 275° |
| 2026-04-20 18:51 | 53.42368 | -6.28185 | 211 ft | 25 kts | 275° |
| 2026-04-20 18:51 | 53.42385 | -6.28478 | 211 ft | 25 kts | 276° |
| 2026-04-20 18:51 | 53.42403 | -6.28773 | 211 ft | 26 kts | 275° |
| 2026-04-20 18:52 | 53.42384 | -6.29053 | 214 ft | 25 kts | 221° |
| 2026-04-20 18:52 | 53.42239 | -6.29000 | 211 ft | 23 kts | 104° |
| 2026-04-20 18:52 | 53.42224 | -6.28700 | 212 ft | 39 kts | 95° |
| 2026-04-20 18:52 | 53.42174 | -6.27775 | 211 ft | 118 kts | 95° |
| 2026-04-20 18:53 | 53.42082 | -6.26159 | 565 ft | 147 kts | 96° |
| 2026-04-20 18:53 | 53.41973 | -6.24396 | 1224 ft | 158 kts | 95° |
| 2026-04-20 18:53 | 53.41866 | -6.22491 | 1854 ft | 170 kts | 95° |
| 2026-04-20 18:53 | 53.41762 | -6.20455 | 2511 ft | 183 kts | 94° |
| 2026-04-20 18:54 | 53.41658 | -6.18200 | 3100 ft | 205 kts | 94° |
| 2026-04-20 18:54 | 53.41530 | -6.15672 | 3718 ft | 230 kts | 96° |
| 2026-04-20 18:54 | 53.41369 | -6.12867 | 4437 ft | 251 kts | 96° |
| 2026-04-20 18:54 | 53.41275 | -6.09887 | 5456 ft | 260 kts | 86° |
| 2026-04-20 18:55 | 53.41847 | -6.06979 | 6506 ft | 271 kts | 59° |
| 2026-04-20 18:55 | 53.43187 | -6.04783 | 7502 ft | 280 kts | 31° |
| 2026-04-20 18:55 | 53.45060 | -6.03886 | 8539 ft | 286 kts | 1° |
| 2026-04-20 18:55 | 53.46995 | -6.04590 | 9618 ft | 288 kts | 335° |
| 2026-04-20 18:56 | 53.48622 | -6.06516 | 10688 ft | 289 kts | 312° |
| 2026-04-20 18:56 | 53.49900 | -6.09232 | 11296 ft | 308 kts | 306° |
| 2026-04-20 18:56 | 53.51213 | -6.12246 | 11780 ft | 328 kts | 305° |
| 2026-04-20 18:56 | 53.52551 | -6.15381 | 12668 ft | 332 kts | 305° |
| 2026-04-20 18:57 | 53.53898 | -6.18554 | 13635 ft | 335 kts | 305° |
| 2026-04-20 18:57 | 53.55266 | -6.21767 | 14467 ft | 340 kts | 305° |
| 2026-04-20 18:57 | 53.56651 | -6.25009 | 15298 ft | 342 kts | 305° |
| 2026-04-20 18:57 | 53.58046 | -6.28268 | 16150 ft | 345 kts | 306° |
| 2026-04-20 18:58 | 53.59463 | -6.31576 | 16913 ft | 350 kts | 306° |
| 2026-04-20 18:58 | 53.60894 | -6.34916 | 17715 ft | 354 kts | 306° |
| 2026-04-20 18:58 | 53.62342 | -6.38290 | 18518 ft | 357 kts | 306° |
| 2026-04-20 18:58 | 53.63807 | -6.41704 | 19233 ft | 360 kts | 306° |
| 2026-04-20 18:59 | 53.65275 | -6.45138 | 19934 ft | 362 kts | 306° |
| 2026-04-20 18:59 | 53.66746 | -6.48603 | 20208 ft | 362 kts | 305° |
| 2026-04-20 18:59 | 53.68211 | -6.52064 | 20285 ft | 366 kts | 305° |
| 2026-04-20 18:59 | 53.69702 | -6.55585 | 20293 ft | 369 kts | 305° |
| 2026-04-20 19:00 | 53.71195 | -6.59110 | 20294 ft | 369 kts | 305° |
| 2026-04-20 19:00 | 53.72686 | -6.62634 | 20297 ft | 369 kts | 305° |
| 2026-04-20 19:00 | 53.74178 | -6.66160 | 20295 ft | 369 kts | 305° |
| 2026-04-20 19:00 | 53.75671 | -6.69693 | 20290 ft | 369 kts | 305° |
| 2026-04-20 19:01 | 53.77165 | -6.73229 | 20290 ft | 369 kts | 305° |
| 2026-04-20 19:01 | 53.78641 | -6.76725 | 20288 ft | 369 kts | 305° |
| 2026-04-20 19:01 | 53.80131 | -6.80262 | 20273 ft | 369 kts | 305° |
| 2026-04-20 19:01 | 53.81619 | -6.83807 | 20292 ft | 369 kts | 305° |
| 2026-04-20 19:02 | 53.83101 | -6.87342 | 20296 ft | 368 kts | 305° |
| 2026-04-20 19:02 | 53.84584 | -6.90882 | 20297 ft | 368 kts | 305° |
| 2026-04-20 19:02 | 53.86061 | -6.94418 | 20294 ft | 368 kts | 305° |
| 2026-04-20 19:02 | 53.87543 | -6.97966 | 20295 ft | 367 kts | 305° |
| 2026-04-20 19:03 | 53.89019 | -7.01503 | 20297 ft | 367 kts | 305° |
| 2026-04-20 19:03 | 53.90493 | -7.05038 | 20296 ft | 367 kts | 305° |
| 2026-04-20 19:03 | 53.91969 | -7.08576 | 20295 ft | 367 kts | 305° |
| 2026-04-20 19:03 | 53.93441 | -7.12116 | 20294 ft | 367 kts | 305° |
| 2026-04-20 19:04 | 53.94909 | -7.15661 | 20287 ft | 367 kts | 305° |
| 2026-04-20 19:04 | 53.96375 | -7.19208 | 20287 ft | 367 kts | 305° |
| 2026-04-20 19:04 | 53.97841 | -7.22756 | 20285 ft | 367 kts | 305° |
| 2026-04-20 19:04 | 53.99304 | -7.26299 | 20283 ft | 367 kts | 305° |
| 2026-04-20 19:05 | 54.00768 | -7.29858 | 20285 ft | 367 kts | 305° |
| 2026-04-20 19:05 | 54.02226 | -7.33414 | 20284 ft | 367 kts | 305° |
| 2026-04-20 19:05 | 54.03667 | -7.36928 | 20301 ft | 367 kts | 305° |
| 2026-04-20 19:05 | 54.05128 | -7.40484 | 20272 ft | 366 kts | 305° |
| 2026-04-20 19:06 | 54.06585 | -7.44028 | 20276 ft | 366 kts | 305° |
| 2026-04-20 19:06 | 54.08041 | -7.47574 | 20279 ft | 365 kts | 305° |
| 2026-04-20 19:06 | 54.09495 | -7.51126 | 20280 ft | 365 kts | 305° |
| 2026-04-20 19:06 | 54.10944 | -7.54677 | 20281 ft | 365 kts | 305° |
| 2026-04-20 19:07 | 54.12393 | -7.58230 | 20284 ft | 365 kts | 305° |
| 2026-04-20 19:07 | 54.13841 | -7.61781 | 20284 ft | 365 kts | 305° |
| 2026-04-20 19:07 | 54.15289 | -7.65340 | 20282 ft | 365 kts | 305° |
| 2026-04-20 19:07 | 54.16734 | -7.68902 | 20282 ft | 365 kts | 305° |
| 2026-04-20 19:08 | 54.18165 | -7.72435 | 20122 ft | 358 kts | 305° |
| 2026-04-20 19:08 | 54.20962 | -7.79371 | 19623 ft | 352 kts | 305° |
| 2026-04-20 19:08 | 54.22349 | -7.82818 | 19376 ft | 351 kts | 305° |
| 2026-04-20 19:09 | 54.23734 | -7.86257 | 19133 ft | 351 kts | 305° |
| 2026-04-20 19:09 | 54.25115 | -7.89684 | 18901 ft | 347 kts | 305° |
| 2026-04-20 19:09 | 54.26468 | -7.93043 | 18495 ft | 341 kts | 305° |
| 2026-04-20 19:09 | 54.27805 | -7.96367 | 17997 ft | 337 kts | 305° |
| 2026-04-20 19:10 | 54.29125 | -7.99653 | 17541 ft | 333 kts | 305° |
| 2026-04-20 19:10 | 54.30424 | -8.02892 | 17080 ft | 328 kts | 306° |
| 2026-04-20 19:10 | 54.31688 | -8.06051 | 16638 ft | 325 kts | 306° |
| 2026-04-20 19:10 | 54.32959 | -8.09232 | 16190 ft | 322 kts | 306° |
| 2026-04-20 19:11 | 54.34220 | -8.12394 | 15741 ft | 320 kts | 306° |
| 2026-04-20 19:11 | 54.35471 | -8.15540 | 15293 ft | 319 kts | 306° |
| 2026-04-20 19:11 | 54.36716 | -8.18676 | 14858 ft | 317 kts | 306° |
| 2026-04-20 19:11 | 54.37958 | -8.21804 | 14420 ft | 316 kts | 306° |
| 2026-04-20 19:12 | 54.39196 | -8.24925 | 13957 ft | 316 kts | 306° |
| 2026-04-20 19:12 | 54.40425 | -8.28033 | 13478 ft | 314 kts | 306° |
| 2026-04-20 19:12 | 54.41646 | -8.31128 | 13026 ft | 312 kts | 306° |
| 2026-04-20 19:12 | 54.42862 | -8.34204 | 12568 ft | 310 kts | 306° |
| 2026-04-20 19:13 | 54.44193 | -8.37084 | 12106 ft | 307 kts | 316° |
| 2026-04-20 19:13 | 54.45849 | -8.39353 | 11642 ft | 304 kts | 329° |
| 2026-04-20 19:13 | 54.47748 | -8.40895 | 11159 ft | 301 kts | 343° |
| 2026-04-20 19:13 | 54.49776 | -8.41699 | 10770 ft | 297 kts | 351° |
| 2026-04-20 19:14 | 54.51773 | -8.42318 | 10634 ft | 285 kts | 351° |
| 2026-04-20 19:14 | 54.53697 | -8.42931 | 10402 ft | 278 kts | 351° |
| 2026-04-20 19:14 | 54.55560 | -8.43534 | 10200 ft | 274 kts | 351° |
| 2026-04-20 19:14 | 54.57445 | -8.44145 | 10071 ft | 275 kts | 350° |
| 2026-04-20 19:15 | 54.59330 | -8.44754 | 9937 ft | 276 kts | 351° |
| 2026-04-20 19:15 | 54.61215 | -8.45364 | 9681 ft | 275 kts | 351° |
| 2026-04-20 19:15 | 54.63086 | -8.45969 | 9297 ft | 273 kts | 351° |
| 2026-04-20 19:15 | 54.64952 | -8.46569 | 8904 ft | 273 kts | 351° |
| 2026-04-20 19:16 | 54.66825 | -8.47166 | 8509 ft | 273 kts | 351° |
| 2026-04-20 19:16 | 54.68690 | -8.47759 | 8304 ft | 272 kts | 351° |
| 2026-04-20 19:16 | 54.70560 | -8.48356 | 8310 ft | 274 kts | 351° |
| 2026-04-20 19:16 | 54.72437 | -8.48960 | 8312 ft | 273 kts | 351° |
| 2026-04-20 19:17 | 54.74281 | -8.49557 | 8292 ft | 263 kts | 351° |
| 2026-04-20 19:17 | 54.76087 | -8.50141 | 7671 ft | 269 kts | 352° |
| 2026-04-20 19:17 | 54.77960 | -8.50562 | 6938 ft | 271 kts | 3° |
| 2026-04-20 19:17 | 54.79798 | -8.49998 | 6187 ft | 268 kts | 21° |
| 2026-04-20 19:18 | 54.81545 | -8.48871 | 5447 ft | 268 kts | 22° |
| 2026-04-20 19:18 | 54.83270 | -8.47754 | 4753 ft | 267 kts | 22° |
| 2026-04-20 19:18 | 54.84982 | -8.46649 | 4299 ft | 256 kts | 23° |
| 2026-04-20 19:18 | 54.86609 | -8.45602 | 3931 ft | 243 kts | 24° |
| 2026-04-20 19:19 | 54.88169 | -8.44601 | 3585 ft | 231 kts | 24° |
| 2026-04-20 19:19 | 54.89620 | -8.43669 | 3260 ft | 214 kts | 23° |
| 2026-04-20 19:19 | 54.90969 | -8.42801 | 2961 ft | 199 kts | 24° |
| 2026-04-20 19:19 | 54.92223 | -8.41996 | 2708 ft | 185 kts | 23° |
| 2026-04-20 19:20 | 54.93394 | -8.41242 | 2423 ft | 173 kts | 24° |
| 2026-04-20 19:20 | 54.94470 | -8.40551 | 2191 ft | 154 kts | 24° |
| 2026-04-20 19:20 | 54.95408 | -8.39950 | 1966 ft | 135 kts | 24° |
| 2026-04-20 19:20 | 54.96244 | -8.39409 | 1763 ft | 124 kts | 24° |
| 2026-04-20 19:21 | 54.97032 | -8.38874 | 1608 ft | 120 kts | 27° |
| 2026-04-20 19:21 | 54.97790 | -8.38351 | 1433 ft | 117 kts | 26° |
| 2026-04-20 19:21 | 54.98546 | -8.37844 | 1307 ft | 116 kts | 26° |
| 2026-04-20 19:21 | 54.99294 | -8.37352 | 1119 ft | 114 kts | 25° |
| 2026-04-20 19:22 | 55.00047 | -8.36903 | 955 ft | 116 kts | 22° |
| 2026-04-20 19:22 | 55.00809 | -8.36439 | 755 ft | 115 kts | 24° |
| 2026-04-20 19:22 | 55.01554 | -8.35932 | 615 ft | 116 kts | 23° |
| 2026-04-20 19:22 | 55.02306 | -8.35465 | 434 ft | 113 kts | 22° |
| 2026-04-20 19:23 | 55.03060 | -8.34981 | 253 ft | 116 kts | 23° |
| 2026-04-20 19:23 | 55.03814 | -8.34496 | 81 ft | 115 kts | 23° |
| 2026-04-20 19:23 | 55.04445 | -8.34082 | 34 ft | 61 kts | 19° |
| 2026-04-20 19:23 | 55.04608 | -8.33979 | 37 ft | 10 kts | 21° |
| 2026-04-20 19:24 | 55.04696 | -8.33919 | 37 ft | 17 kts | 21° |
| 2026-04-20 19:24 | 55.04807 | -8.33848 | 35 ft | 17 kts | 20° |
| 2026-04-20 19:24 | 55.04922 | -8.33775 | 31 ft | 19 kts | 20° |
| 2026-04-20 19:24 | 55.05036 | -8.33733 | 30 ft | 11 kts | 13° |
| 2026-04-20 19:25 | 55.05027 | -8.33700 | 32 ft | 4 kts | 191° |
| 2026-04-20 19:25 | 55.04954 | -8.33752 | 31 ft | 19 kts | 201° |
| 2026-04-20 19:25 | 55.04829 | -8.33834 | 34 ft | 18 kts | 199° |
| 2026-04-20 19:25 | 55.04708 | -8.33909 | 36 ft | 18 kts | 201° |
| 2026-04-20 19:26 | 55.04591 | -8.33987 | 38 ft | 19 kts | 201° |
| 2026-04-20 19:26 | 55.04439 | -8.34088 | 34 ft | 26 kts | 201° |
| 2026-04-20 19:26 | 55.04269 | -8.34199 | 32 ft | 26 kts | 200° |
| 2026-04-20 19:26 | 55.04099 | -8.34307 | 37 ft | 27 kts | 200° |
| 2026-04-20 19:27 | 55.03933 | -8.34415 | 34 ft | 18 kts | 200° |
| 2026-04-20 19:27 | 55.03879 | -8.34354 | 33 ft | 11 kts | 109° |
| 2026-04-20 19:27 | 55.03886 | -8.34214 | 33 ft | 11 kts | 97° |
| 2026-04-20 19:27 | 55.03854 | -8.34149 | 33 ft | 6 kts | 185° |
| 2026-04-20 19:28 | 55.03835 | -8.34169 | 32 ft | 1 kts | 238° |
| 2026-04-20 19:28 | 55.03836 | -8.34177 | 33 ft | 0 kts | 277° |
| 2026-04-20 19:28 | 55.03838 | -8.34179 | 33 ft | 1 kts | 289° |
| 2026-04-20 19:28 | 55.03838 | -8.34181 | 33 ft | 0 kts | 289° |